sensor_id;sensor_type;location;lat;lon;timestamp;temperature;humidity
19924;DHT22;10124;53.068;18.224;2023-04-28T00:30:29;-0.20;1.00
19924;DHT22;10124;53.068;18.224;2023-04-28T00:32:56;-0.50;1.00
19924;DHT22;10124;53.068;18.224;2023-04-28T00:55:08;-0.60;1.00
19924;DHT22;10124;53.068;18.224;2023-04-28T01:00:04;-0.70;1.00
19924;DHT22;10124;53.068;18.224;2023-04-28T01:02:32;-0.60;1.00
19924;DHT22;10124;53.068;18.224;2023-04-28T01:07:28;-0.70;1.00
19924;DHT22;10124;53.068;18.224;2023-04-28T01:09:56;-0.70;1.00
19924;DHT22;10124;53.068;18.224;2023-04-28T01:12:29;0.20;1.00
19924;DHT22;10124;53.068;18.224;2023-04-28T01:14:58;-0.70;1.00
19924;DHT22;10124;53.068;18.224;2023-04-28T01:17:26;-0.80;1.00
19924;DHT22;10124;53.068;18.224;2023-04-28T01:24:50;-0.70;1.00
19924;DHT22;10124;53.068;18.224;2023-04-28T01:29:45;-0.50;1.00
19924;DHT22;10124;53.068;18.224;2023-04-28T03:08:29;-1.60;1.00
19924;DHT22;10124;53.068;18.224;2023-04-28T05:06:20;-0.50;1.00
19924;DHT22;10124;53.068;18.224;2023-04-28T06:21:09;6.90;1.00
19924;DHT22;10124;53.068;18.224;2023-04-28T06:38:30;10.70;99.90
19924;DHT22;10124;53.068;18.224;2023-04-28T06:40:57;10.70;99.90
19924;DHT22;10124;53.068;18.224;2023-04-28T06:43:25;12.90;99.90
19924;DHT22;10124;53.068;18.224;2023-04-28T06:46:22;12.30;99.90
19924;DHT22;10124;53.068;18.224;2023-04-28T06:53:45;14.90;1.00
19924;DHT22;10124;53.068;18.224;2023-04-28T06:56:13;14.70;1.00
19924;DHT22;10124;53.068;18.224;2023-04-28T06:58:40;15.20;1.00
19924;DHT22;10124;53.068;18.224;2023-04-28T07:01:07;15.70;1.00
19924;DHT22;10124;53.068;18.224;2023-04-28T07:10:58;17.20;99.90
19924;DHT22;10124;53.068;18.224;2023-04-28T07:13:26;17.00;99.90
19924;DHT22;10124;53.068;18.224;2023-04-28T07:15:53;16.50;99.90
19924;DHT22;10124;53.068;18.224;2023-04-28T07:18:21;16.70;99.90
19924;DHT22;10124;53.068;18.224;2023-04-28T07:20:49;16.90;99.90
19924;DHT22;10124;53.068;18.224;2023-04-28T07:25:44;16.10;99.90
19924;DHT22;10124;53.068;18.224;2023-04-28T07:28:12;16.60;99.90
19924;DHT22;10124;53.068;18.224;2023-04-28T07:30:40;16.00;99.90
19924;DHT22;10124;53.068;18.224;2023-04-28T07:33:07;15.80;99.90
19924;DHT22;10124;53.068;18.224;2023-04-28T07:35:35;15.70;99.90
19924;DHT22;10124;53.068;18.224;2023-04-28T07:38:02;16.80;99.90
19924;DHT22;10124;53.068;18.224;2023-04-28T07:47:53;17.60;99.90
19924;DHT22;10124;53.068;18.224;2023-04-28T07:55:16;19.30;99.90
19924;DHT22;10124;53.068;18.224;2023-04-28T07:57:44;20.00;99.90
19924;DHT22;10124;53.068;18.224;2023-04-28T08:00:11;20.00;99.90
19924;DHT22;10124;53.068;18.224;2023-04-28T08:02:39;19.90;99.90
19924;DHT22;10124;53.068;18.224;2023-04-28T08:05:07;20.00;99.90
19924;DHT22;10124;53.068;18.224;2023-04-28T08:07:36;20.70;99.90
19924;DHT22;10124;53.068;18.224;2023-04-28T08:10:04;20.90;99.90
19924;DHT22;10124;53.068;18.224;2023-04-28T08:22:23;18.30;89.10
19924;DHT22;10124;53.068;18.224;2023-04-28T08:24:50;17.70;80.30
19924;DHT22;10124;53.068;18.224;2023-04-28T08:27:17;18.20;94.30
19924;DHT22;10124;53.068;18.224;2023-04-28T08:29:44;16.90;95.90
19924;DHT22;10124;53.068;18.224;2023-04-28T08:37:07;15.80;44.90
19924;DHT22;10124;53.068;18.224;2023-04-28T08:42:03;14.60;76.30
19924;DHT22;10124;53.068;18.224;2023-04-28T08:44:37;15.00;50.30
19924;DHT22;10124;53.068;18.224;2023-04-28T08:47:12;14.40;78.20
19924;DHT22;10124;53.068;18.224;2023-04-28T08:49:40;14.70;66.70
19924;DHT22;10124;53.068;18.224;2023-04-28T08:52:12;14.60;52.70
19924;DHT22;10124;53.068;18.224;2023-04-28T08:54:43;14.40;60.30
19924;DHT22;10124;53.068;18.224;2023-04-28T08:57:10;14.60;67.50
19924;DHT22;10124;53.068;18.224;2023-04-28T08:59:38;14.70;61.70
19924;DHT22;10124;53.068;18.224;2023-04-28T09:02:07;16.40;84.30
19924;DHT22;10124;53.068;18.224;2023-04-28T09:07:10;17.90;99.70
19924;DHT22;10124;53.068;18.224;2023-04-28T09:09:38;18.30;67.30
19924;DHT22;10124;53.068;18.224;2023-04-28T09:12:07;18.10;78.20
19924;DHT22;10124;53.068;18.224;2023-04-28T09:14:35;19.90;99.20
19924;DHT22;10124;53.068;18.224;2023-04-28T09:17:12;20.40;99.90
19924;DHT22;10124;53.068;18.224;2023-04-28T09:19:40;20.40;92.70
19924;DHT22;10124;53.068;18.224;2023-04-28T09:22:10;18.30;59.80
19924;DHT22;10124;53.068;18.224;2023-04-28T09:24:53;18.20;57.00
19924;DHT22;10124;53.068;18.224;2023-04-28T09:27:28;17.80;58.80
19924;DHT22;10124;53.068;18.224;2023-04-28T09:29:55;17.20;43.10
19924;DHT22;10124;53.068;18.224;2023-04-28T09:32:23;17.50;49.00
19924;DHT22;10124;53.068;18.224;2023-04-28T09:34:54;18.30;70.90
19924;DHT22;10124;53.068;18.224;2023-04-28T09:37:26;20.40;89.20
19924;DHT22;10124;53.068;18.224;2023-04-28T09:40:02;20.90;88.80
19924;DHT22;10124;53.068;18.224;2023-04-28T09:42:41;21.30;75.40
19924;DHT22;10124;53.068;18.224;2023-04-28T09:45:14;24.10;99.90
19924;DHT22;10124;53.068;18.224;2023-04-28T09:47:44;23.30;77.70
19924;DHT22;10124;53.068;18.224;2023-04-28T09:50:15;24.00;90.50
19924;DHT22;10124;53.068;18.224;2023-04-28T09:52:52;24.10;90.70
19924;DHT22;10124;53.068;18.224;2023-04-28T09:55:23;24.50;99.90
19924;DHT22;10124;53.068;18.224;2023-04-28T09:57:53;24.00;99.90
19924;DHT22;10124;53.068;18.224;2023-04-28T10:00:21;24.30;99.90
19924;DHT22;10124;53.068;18.224;2023-04-28T10:05:20;23.40;81.60
19924;DHT22;10124;53.068;18.224;2023-04-28T10:15:15;22.00;62.40
19924;DHT22;10124;53.068;18.224;2023-04-28T10:17:44;22.30;51.30
19924;DHT22;10124;53.068;18.224;2023-04-28T10:20:15;22.60;96.10
19924;DHT22;10124;53.068;18.224;2023-04-28T10:31:08;23.90;72.70
19924;DHT22;10124;53.068;18.224;2023-04-28T10:33:37;24.20;90.80
19924;DHT22;10124;53.068;18.224;2023-04-28T10:36:06;25.40;99.90
19924;DHT22;10124;53.068;18.224;2023-04-28T10:38:35;25.10;99.90
19924;DHT22;10124;53.068;18.224;2023-04-28T10:41:03;24.60;99.90
19924;DHT22;10124;53.068;18.224;2023-04-28T10:43:38;23.80;99.90
19924;DHT22;10124;53.068;18.224;2023-04-28T10:46:08;24.00;99.10
19924;DHT22;10124;53.068;18.224;2023-04-28T10:56:15;23.40;78.00
19924;DHT22;10124;53.068;18.224;2023-04-28T10:58:55;23.00;79.70
19924;DHT22;10124;53.068;18.224;2023-04-28T11:06:33;25.70;99.90
19924;DHT22;10124;53.068;18.224;2023-04-28T11:14:34;25.50;99.90
19924;DHT22;10124;53.068;18.224;2023-04-28T11:17:08;24.40;91.20
19924;DHT22;10124;53.068;18.224;2023-04-28T11:19:40;24.60;95.70
19924;DHT22;10124;53.068;18.224;2023-04-28T11:22:20;23.90;81.00
19924;DHT22;10124;53.068;18.224;2023-04-28T11:25:00;24.00;91.30
19924;DHT22;10124;53.068;18.224;2023-04-28T11:27:31;23.70;61.10
19924;DHT22;10124;53.068;18.224;2023-04-28T11:30:01;23.10;55.70
19924;DHT22;10124;53.068;18.224;2023-04-28T11:32:32;24.60;76.60
19924;DHT22;10124;53.068;18.224;2023-04-28T11:37:30;25.10;78.40
19924;DHT22;10124;53.068;18.224;2023-04-28T11:40:09;24.90;89.60
19924;DHT22;10124;53.068;18.224;2023-04-28T11:42:46;25.00;92.50
19924;DHT22;10124;53.068;18.224;2023-04-28T11:45:14;24.20;72.80
19924;DHT22;10124;53.068;18.224;2023-04-28T11:47:42;24.20;79.00
19924;DHT22;10124;53.068;18.224;2023-04-28T11:50:10;24.10;74.70
19924;DHT22;10124;53.068;18.224;2023-04-28T11:52:48;24.30;76.80
19924;DHT22;10124;53.068;18.224;2023-04-28T11:55:19;24.50;75.60
19924;DHT22;10124;53.068;18.224;2023-04-28T11:57:46;23.20;51.80
19924;DHT22;10124;53.068;18.224;2023-04-28T12:00:15;23.00;57.10
19924;DHT22;10124;53.068;18.224;2023-04-28T12:02:48;23.40;58.60
19924;DHT22;10124;53.068;18.224;2023-04-28T12:05:16;24.30;67.40
19924;DHT22;10124;53.068;18.224;2023-04-28T12:07:43;24.60;67.80
19924;DHT22;10124;53.068;18.224;2023-04-28T12:10:13;25.30;81.30
19924;DHT22;10124;53.068;18.224;2023-04-28T12:12:44;24.80;70.90
19924;DHT22;10124;53.068;18.224;2023-04-28T12:15:20;24.00;52.40
19924;DHT22;10124;53.068;18.224;2023-04-28T12:17:49;23.10;45.80
19924;DHT22;10124;53.068;18.224;2023-04-28T12:20:35;24.50;52.70
19924;DHT22;10124;53.068;18.224;2023-04-28T12:23:03;25.40;69.40
19924;DHT22;10124;53.068;18.224;2023-04-28T12:25:31;24.60;58.80
19924;DHT22;10124;53.068;18.224;2023-04-28T12:28:06;24.30;63.30
19924;DHT22;10124;53.068;18.224;2023-04-28T12:30:36;21.90;27.60
19924;DHT22;10124;53.068;18.224;2023-04-28T12:33:23;21.00;14.50
19924;DHT22;10124;53.068;18.224;2023-04-28T12:35:56;20.90;6.60
19924;DHT22;10124;53.068;18.224;2023-04-28T12:38:24;21.80;1.00
19924;DHT22;10124;53.068;18.224;2023-04-28T12:40:52;21.90;5.50
19924;DHT22;10124;53.068;18.224;2023-04-28T12:43:20;21.80;2.00
19924;DHT22;10124;53.068;18.224;2023-04-28T12:45:51;22.10;2.80
19924;DHT22;10124;53.068;18.224;2023-04-28T12:48:22;22.80;8.10
19924;DHT22;10124;53.068;18.224;2023-04-28T12:50:51;23.50;27.00
19924;DHT22;10124;53.068;18.224;2023-04-28T12:53:19;23.80;25.90
19924;DHT22;10124;53.068;18.224;2023-04-28T12:55:46;24.50;30.60
19924;DHT22;10124;53.068;18.224;2023-04-28T12:58:14;25.10;41.50
19924;DHT22;10124;53.068;18.224;2023-04-28T13:00:41;25.10;35.70
19924;DHT22;10124;53.068;18.224;2023-04-28T13:03:09;25.10;47.90
19924;DHT22;10124;53.068;18.224;2023-04-28T13:05:37;25.40;46.10
19924;DHT22;10124;53.068;18.224;2023-04-28T13:08:04;25.60;52.70
19924;DHT22;10124;53.068;18.224;2023-04-28T13:10:31;23.80;26.80
19924;DHT22;10124;53.068;18.224;2023-04-28T13:12:59;22.50;17.40
19924;DHT22;10124;53.068;18.224;2023-04-28T13:15:26;22.20;9.60
19924;DHT22;10124;53.068;18.224;2023-04-28T13:17:54;21.20;1.00
19924;DHT22;10124;53.068;18.224;2023-04-28T13:20:21;21.60;1.00
19924;DHT22;10124;53.068;18.224;2023-04-28T13:22:49;22.70;5.80
19924;DHT22;10124;53.068;18.224;2023-04-28T13:25:17;22.80;5.00
19924;DHT22;10124;53.068;18.224;2023-04-28T13:27:46;22.40;1.00
19924;DHT22;10124;53.068;18.224;2023-04-28T13:30:14;22.60;3.70
19924;DHT22;10124;53.068;18.224;2023-04-28T13:32:41;24.00;11.40
19924;DHT22;10124;53.068;18.224;2023-04-28T13:35:09;23.70;8.20
19924;DHT22;10124;53.068;18.224;2023-04-28T13:37:37;23.10;3.70
19924;DHT22;10124;53.068;18.224;2023-04-28T13:40:09;22.30;1.00
19924;DHT22;10124;53.068;18.224;2023-04-28T13:42:38;22.00;1.00
19924;DHT22;10124;53.068;18.224;2023-04-28T13:45:14;21.80;1.00
19924;DHT22;10124;53.068;18.224;2023-04-28T13:47:43;21.40;1.00
19924;DHT22;10124;53.068;18.224;2023-04-28T13:50:11;21.20;1.00
19924;DHT22;10124;53.068;18.224;2023-04-28T13:52:39;20.90;1.00
19924;DHT22;10124;53.068;18.224;2023-04-28T13:55:09;21.20;1.00
19924;DHT22;10124;53.068;18.224;2023-04-28T13:57:37;20.50;1.00
19924;DHT22;10124;53.068;18.224;2023-04-28T14:00:05;20.70;1.00
19924;DHT22;10124;53.068;18.224;2023-04-28T14:02:33;20.80;1.00
19924;DHT22;10124;53.068;18.224;2023-04-28T14:05:02;20.70;1.00
19924;DHT22;10124;53.068;18.224;2023-04-28T14:07:30;20.40;1.00
19924;DHT22;10124;53.068;18.224;2023-04-28T14:09:57;20.90;1.00
19924;DHT22;10124;53.068;18.224;2023-04-28T14:12:26;21.40;1.00
19924;DHT22;10124;53.068;18.224;2023-04-28T14:14:53;21.60;1.00
19924;DHT22;10124;53.068;18.224;2023-04-28T14:17:20;21.40;1.00
19924;DHT22;10124;53.068;18.224;2023-04-28T14:19:48;20.60;1.00
19924;DHT22;10124;53.068;18.224;2023-04-28T14:22:16;20.20;1.00
19924;DHT22;10124;53.068;18.224;2023-04-28T14:24:43;20.40;1.00
19924;DHT22;10124;53.068;18.224;2023-04-28T14:27:12;20.40;1.00
19924;DHT22;10124;53.068;18.224;2023-04-28T14:29:40;20.30;1.00
19924;DHT22;10124;53.068;18.224;2023-04-28T14:32:08;20.10;1.00
19924;DHT22;10124;53.068;18.224;2023-04-28T14:34:36;20.70;1.00
19924;DHT22;10124;53.068;18.224;2023-04-28T14:37:03;20.70;1.00
19924;DHT22;10124;53.068;18.224;2023-04-28T14:39:31;20.20;1.00
19924;DHT22;10124;53.068;18.224;2023-04-28T14:41:59;20.20;1.00
19924;DHT22;10124;53.068;18.224;2023-04-28T14:44:27;20.10;1.00
19924;DHT22;10124;53.068;18.224;2023-04-28T14:46:55;20.40;1.00
19924;DHT22;10124;53.068;18.224;2023-04-28T14:49:23;20.30;1.00
19924;DHT22;10124;53.068;18.224;2023-04-28T14:51:51;20.20;1.00
19924;DHT22;10124;53.068;18.224;2023-04-28T14:54:19;20.50;1.00
19924;DHT22;10124;53.068;18.224;2023-04-28T14:56:48;19.80;1.00
19924;DHT22;10124;53.068;18.224;2023-04-28T14:59:16;18.90;1.00
19924;DHT22;10124;53.068;18.224;2023-04-28T15:01:45;18.50;1.00
19924;DHT22;10124;53.068;18.224;2023-04-28T15:04:12;18.00;1.00
19924;DHT22;10124;53.068;18.224;2023-04-28T15:06:40;17.90;1.00
19924;DHT22;10124;53.068;18.224;2023-04-28T15:09:08;17.80;1.00
19924;DHT22;10124;53.068;18.224;2023-04-28T15:11:35;17.80;1.00
19924;DHT22;10124;53.068;18.224;2023-04-28T15:14:03;17.70;1.00
19924;DHT22;10124;53.068;18.224;2023-04-28T15:16:30;17.40;1.00
19924;DHT22;10124;53.068;18.224;2023-04-28T15:18:58;17.30;1.00
19924;DHT22;10124;53.068;18.224;2023-04-28T15:21:26;16.90;1.00
19924;DHT22;10124;53.068;18.224;2023-04-28T15:23:54;17.10;1.00
19924;DHT22;10124;53.068;18.224;2023-04-28T15:26:22;16.90;1.00
19924;DHT22;10124;53.068;18.224;2023-04-28T15:28:50;16.90;1.00
19924;DHT22;10124;53.068;18.224;2023-04-28T15:31:17;16.90;1.00
19924;DHT22;10124;53.068;18.224;2023-04-28T15:33:45;17.00;1.00
19924;DHT22;10124;53.068;18.224;2023-04-28T15:36:12;16.70;1.00
19924;DHT22;10124;53.068;18.224;2023-04-28T15:38:40;16.40;1.00
19924;DHT22;10124;53.068;18.224;2023-04-28T15:41:08;16.40;1.00
19924;DHT22;10124;53.068;18.224;2023-04-28T15:43:36;16.40;1.00
19924;DHT22;10124;53.068;18.224;2023-04-28T15:46:07;16.10;1.00
19924;DHT22;10124;53.068;18.224;2023-04-28T15:48:37;15.90;1.00
19924;DHT22;10124;53.068;18.224;2023-04-28T15:51:06;15.70;1.00
19924;DHT22;10124;53.068;18.224;2023-04-28T15:53:33;15.90;19.20
19924;DHT22;10124;53.068;18.224;2023-04-28T15:56:02;15.50;18.80
19924;DHT22;10124;53.068;18.224;2023-04-28T15:58:30;15.40;15.10
19924;DHT22;10124;53.068;18.224;2023-04-28T16:00:58;15.30;15.00
19924;DHT22;10124;53.068;18.224;2023-04-28T16:03:26;15.30;39.20
19924;DHT22;10124;53.068;18.224;2023-04-28T16:05:55;15.10;52.70
19924;DHT22;10124;53.068;18.224;2023-04-28T16:08:22;15.00;82.70
19924;DHT22;10124;53.068;18.224;2023-04-28T16:10:51;15.00;82.50
19924;DHT22;10124;53.068;18.224;2023-04-28T16:13:19;14.80;99.90
19924;DHT22;10124;53.068;18.224;2023-04-28T16:15:46;14.90;99.90
19924;DHT22;10124;53.068;18.224;2023-04-28T16:18:16;14.80;99.90
19924;DHT22;10124;53.068;18.224;2023-04-28T16:20:43;14.70;99.90
19924;DHT22;10124;53.068;18.224;2023-04-28T16:23:11;14.70;99.90
19924;DHT22;10124;53.068;18.224;2023-04-28T16:25:40;14.70;99.90
19924;DHT22;10124;53.068;18.224;2023-04-28T16:28:08;14.60;99.90
19924;DHT22;10124;53.068;18.224;2023-04-28T16:30:35;14.60;99.90
19924;DHT22;10124;53.068;18.224;2023-04-28T16:33:03;14.70;99.90
19924;DHT22;10124;53.068;18.224;2023-04-28T16:35:31;14.50;99.90
19924;DHT22;10124;53.068;18.224;2023-04-28T16:37:59;14.40;99.90
19924;DHT22;10124;53.068;18.224;2023-04-28T16:40:26;14.50;99.90
19924;DHT22;10124;53.068;18.224;2023-04-28T16:42:55;14.40;99.90
19924;DHT22;10124;53.068;18.224;2023-04-28T16:45:22;14.40;99.90
19924;DHT22;10124;53.068;18.224;2023-04-28T16:47:50;14.50;99.90
19924;DHT22;10124;53.068;18.224;2023-04-28T16:50:17;14.50;99.90
19924;DHT22;10124;53.068;18.224;2023-04-28T16:52:46;14.40;99.90
19924;DHT22;10124;53.068;18.224;2023-04-28T16:55:14;14.40;99.90
19924;DHT22;10124;53.068;18.224;2023-04-28T16:57:42;14.50;99.90
19924;DHT22;10124;53.068;18.224;2023-04-28T17:00:09;14.90;99.90
19924;DHT22;10124;53.068;18.224;2023-04-28T17:02:37;14.30;99.90
19924;DHT22;10124;53.068;18.224;2023-04-28T17:05:05;14.30;99.90
19924;DHT22;10124;53.068;18.224;2023-04-28T17:07:33;14.10;99.90
19924;DHT22;10124;53.068;18.224;2023-04-28T17:10:02;14.10;99.90
19924;DHT22;10124;53.068;18.224;2023-04-28T17:12:30;14.10;99.90
19924;DHT22;10124;53.068;18.224;2023-04-28T17:14:57;14.00;99.90
19924;DHT22;10124;53.068;18.224;2023-04-28T17:17:25;13.90;99.90
19924;DHT22;10124;53.068;18.224;2023-04-28T17:19:53;13.90;99.90
19924;DHT22;10124;53.068;18.224;2023-04-28T17:22:22;13.80;99.90
19924;DHT22;10124;53.068;18.224;2023-04-28T17:24:49;13.70;99.90
19924;DHT22;10124;53.068;18.224;2023-04-28T17:27:17;13.60;99.90
19924;DHT22;10124;53.068;18.224;2023-04-28T17:29:44;13.60;1.00
19924;DHT22;10124;53.068;18.224;2023-04-28T17:32:12;13.40;1.00
19924;DHT22;10124;53.068;18.224;2023-04-28T17:34:39;13.30;1.00
19924;DHT22;10124;53.068;18.224;2023-04-28T17:37:07;13.20;1.00
19924;DHT22;10124;53.068;18.224;2023-04-28T17:39:35;13.00;1.00
19924;DHT22;10124;53.068;18.224;2023-04-28T17:42:02;12.90;1.00
19924;DHT22;10124;53.068;18.224;2023-04-28T17:44:31;12.90;1.00
19924;DHT22;10124;53.068;18.224;2023-04-28T17:46:58;12.70;1.00
19924;DHT22;10124;53.068;18.224;2023-04-28T17:49:27;12.50;1.00
19924;DHT22;10124;53.068;18.224;2023-04-28T17:51:54;12.40;1.00
19924;DHT22;10124;53.068;18.224;2023-04-28T17:54:22;12.30;1.00
19924;DHT22;10124;53.068;18.224;2023-04-28T17:56:50;12.20;1.00
19924;DHT22;10124;53.068;18.224;2023-04-28T17:59:17;12.10;1.00
19924;DHT22;10124;53.068;18.224;2023-04-28T18:01:45;11.90;1.00
19924;DHT22;10124;53.068;18.224;2023-04-28T18:04:12;11.80;1.00
19924;DHT22;10124;53.068;18.224;2023-04-28T18:06:40;11.70;1.00
19924;DHT22;10124;53.068;18.224;2023-04-28T18:09:07;11.50;1.00
19924;DHT22;10124;53.068;18.224;2023-04-28T18:11:34;11.30;1.00
19924;DHT22;10124;53.068;18.224;2023-04-28T18:14:02;11.30;1.00
19924;DHT22;10124;53.068;18.224;2023-04-28T18:16:30;11.20;99.90
19924;DHT22;10124;53.068;18.224;2023-04-28T18:18:57;11.10;99.90
19924;DHT22;10124;53.068;18.224;2023-04-28T18:21:25;10.90;99.90
19924;DHT22;10124;53.068;18.224;2023-04-28T18:23:54;10.80;99.90
19924;DHT22;10124;53.068;18.224;2023-04-28T18:26:21;10.70;99.90
19924;DHT22;10124;53.068;18.224;2023-04-28T18:28:49;10.60;99.90
19924;DHT22;10124;53.068;18.224;2023-04-28T18:31:16;10.50;99.90
19924;DHT22;10124;53.068;18.224;2023-04-28T18:33:44;10.50;99.90
19924;DHT22;10124;53.068;18.224;2023-04-28T18:36:11;10.30;99.90
19924;DHT22;10124;53.068;18.224;2023-04-28T18:38:38;10.20;99.90
19924;DHT22;10124;53.068;18.224;2023-04-28T18:41:14;10.10;99.90
19924;DHT22;10124;53.068;18.224;2023-04-28T18:43:43;10.00;99.90
19924;DHT22;10124;53.068;18.224;2023-04-28T18:46:11;9.90;1.00
19924;DHT22;10124;53.068;18.224;2023-04-28T18:48:38;9.80;1.00
19924;DHT22;10124;53.068;18.224;2023-04-28T18:51:06;9.70;1.00
19924;DHT22;10124;53.068;18.224;2023-04-28T18:53:35;9.70;1.00
19924;DHT22;10124;53.068;18.224;2023-04-28T18:56:03;9.50;1.00
19924;DHT22;10124;53.068;18.224;2023-04-28T18:58:30;9.40;1.00
19924;DHT22;10124;53.068;18.224;2023-04-28T19:00:58;9.30;1.00
19924;DHT22;10124;53.068;18.224;2023-04-28T19:03:28;9.20;1.00
19924;DHT22;10124;53.068;18.224;2023-04-28T19:05:57;9.10;1.00
19924;DHT22;10124;53.068;18.224;2023-04-28T19:08:25;9.10;1.00
19924;DHT22;10124;53.068;18.224;2023-04-28T19:10:53;9.00;1.00
19924;DHT22;10124;53.068;18.224;2023-04-28T19:13:23;8.80;1.00
19924;DHT22;10124;53.068;18.224;2023-04-28T19:15:52;8.80;1.00
19924;DHT22;10124;53.068;18.224;2023-04-28T19:18:22;8.70;1.00
19924;DHT22;10124;53.068;18.224;2023-04-28T19:20:58;8.60;1.00
19924;DHT22;10124;53.068;18.224;2023-04-28T19:23:27;8.60;1.00
19924;DHT22;10124;53.068;18.224;2023-04-28T19:25:56;8.50;1.00
19924;DHT22;10124;53.068;18.224;2023-04-28T19:28:25;8.50;1.00
19924;DHT22;10124;53.068;18.224;2023-04-28T19:30:54;8.30;1.00
19924;DHT22;10124;53.068;18.224;2023-04-28T19:33:22;8.40;1.00
19924;DHT22;10124;53.068;18.224;2023-04-28T19:35:54;8.30;1.00
19924;DHT22;10124;53.068;18.224;2023-04-28T19:38:22;6.70;1.00
19924;DHT22;10124;53.068;18.224;2023-04-28T19:40:58;8.20;1.00
19924;DHT22;10124;53.068;18.224;2023-04-28T19:43:27;8.10;1.00
19924;DHT22;10124;53.068;18.224;2023-04-28T19:45:55;8.10;1.00
19924;DHT22;10124;53.068;18.224;2023-04-28T19:48:23;8.10;1.00
19924;DHT22;10124;53.068;18.224;2023-04-28T19:50:53;8.00;1.00
19924;DHT22;10124;53.068;18.224;2023-04-28T19:53:22;7.90;1.00
19924;DHT22;10124;53.068;18.224;2023-04-28T19:55:51;8.00;1.00
19924;DHT22;10124;53.068;18.224;2023-04-28T19:58:18;7.90;1.00
19924;DHT22;10124;53.068;18.224;2023-04-28T20:00:47;7.90;1.00
19924;DHT22;10124;53.068;18.224;2023-04-28T20:03:15;7.90;1.00
19924;DHT22;10124;53.068;18.224;2023-04-28T20:05:43;7.90;1.00
19924;DHT22;10124;53.068;18.224;2023-04-28T20:08:11;7.80;1.00
19924;DHT22;10124;53.068;18.224;2023-04-28T20:10:41;7.80;1.00
19924;DHT22;10124;53.068;18.224;2023-04-28T20:13:08;7.80;1.00
19924;DHT22;10124;53.068;18.224;2023-04-28T20:15:37;7.80;1.00
